Avondale, Louisiana
Current Conditions -  °F | °C
As of 2:53 PM on Tuesday 25 Nov 2014 (Local Time) from KMSY Reporting Station
Overcast Overcast  
Wind Chill: 56°   Ceiling: 12000
Heat Index: 56°   Visibility: 10mi
Dew Point: 32°   Wind: 12mph
Humidity: 40%   Direction: 320°NW
Pressure: 30.16"   Gusts: NA
Location:  29.9137°N, 90.2078°W
Report Text: KMSY 252053Z 32010KT 10SM SCT100 OVC120 13/00 A3016 RMK AO2 SLP216 VIRGA SW-NW T01330000 53001
Loading
Personal Weather Stations






























Interactive Weather Map New forecast layout! Learn more

10-Day Weather Forecast

Advertisements
Track Severe Weather on mobile